Willards, Maryland
Current Conditions -  °F | °C
As of 9:54 PM on Monday 26 Jan 2015 (Local Time) from KSBY Reporting Station
Overcast Overcast  
Wind Chill: 26°   Ceiling: 700
Heat Index: 35°   Visibility: 10mi
Dew Point: 30°   Wind: 13mph
Humidity: 82%   Direction: 350°N
Pressure: 29.63"   Gusts: 22mph
Location:  38.39°N, 75.35°W
Report Text: KSBY 270254Z 35011G19KT 10SM OVC007 02/M01 A2963 RMK AO2 UPE03B19E22RAB03E41 SLP035 P0000 60008 I1000 I3000 T00171011 53005
Loading
Personal Weather Stations






























Interactive Weather Map New forecast layout! Learn more

10-Day Weather Forecast

Advertisements
Track Severe Weather on mobile